Terminal Aerodrome Forecast
Issued by NWS

Home | Current Version | Previous Version | Text Only | Print | Product List | Glossary On
Versions: 1 2 3 4 5 6 7 8 9 10 11 12 13 14 15 16
000
FTUS43 KDLH 241100
TAFBRD
TAF
KBRD 241139Z 2412/2512 VRB03KT P6SM OVC070
     FM241800 11008KT P6SM VCSH SCT050 OVC100
     FM242300 09008KT 5SM -RA BKN050 OVC080
     FM250300 08007KT 4SM -RA OVC025
     FM250600 05010KT 2SM -RA BR OVC012=

USA.gov is the U.S. government's official web portal to all federal, state and local government web resources and services.